sensor_id;sensor_type;location;lat;lon;timestamp;pressure;altitude;pressure_sealevel;temperature;humidity
29045;BME280;16133;49.486;12.176;2023-04-01T00:02:16;95654.00;;;6.34;100.00
29045;BME280;16133;49.486;12.176;2023-04-01T00:04:42;95650.34;;;6.35;100.00
29045;BME280;16133;49.486;12.176;2023-04-01T00:07:08;95655.41;;;6.37;100.00
29045;BME280;16133;49.486;12.176;2023-04-01T00:09:34;95662.31;;;6.38;100.00
29045;BME280;16133;49.486;12.176;2023-04-01T00:12:00;95656.63;;;6.41;100.00
29045;BME280;16133;49.486;12.176;2023-04-01T00:14:25;95656.63;;;6.41;100.00
29045;BME280;16133;49.486;12.176;2023-04-01T00:16:51;95656.28;;;6.44;100.00
29045;BME280;16133;49.486;12.176;2023-04-01T00:19:17;95655.06;;;6.46;100.00
29045;BME280;16133;49.486;12.176;2023-04-01T00:21:42;95656.47;;;6.49;100.00
29045;BME280;16133;49.486;12.176;2023-04-01T00:24:08;95653.84;;;6.49;100.00
29045;BME280;16133;49.486;12.176;2023-04-01T00:26:33;95651.03;;;6.50;100.00
29045;BME280;16133;49.486;12.176;2023-04-01T00:28:59;95657.09;;;6.51;100.00
29045;BME280;16133;49.486;12.176;2023-04-01T00:31:25;95662.97;;;6.53;100.00
29045;BME280;16133;49.486;12.176;2023-04-01T00:33:51;95652.44;;;6.53;100.00
29045;BME280;16133;49.486;12.176;2023-04-01T00:36:19;95656.06;;;6.52;100.00
29045;BME280;16133;49.486;12.176;2023-04-01T00:38:48;95651.84;;;6.51;100.00
29045;BME280;16133;49.486;12.176;2023-04-01T00:41:15;95648.16;;;6.52;100.00
29045;BME280;16133;49.486;12.176;2023-04-01T00:43:42;95652.44;;;6.53;100.00
29045;BME280;16133;49.486;12.176;2023-04-01T00:46:08;95654.66;;;6.56;100.00
29045;BME280;16133;49.486;12.176;2023-04-01T00:48:36;95649.03;;;6.59;100.00
29045;BME280;16133;49.486;12.176;2023-04-01T00:53:33;95642.53;;;6.61;100.00
29045;BME280;16133;49.486;12.176;2023-04-01T00:56:06;95650.25;;;6.63;100.00
29045;BME280;16133;49.486;12.176;2023-04-01T00:58:38;95645.78;;;6.63;100.00
29045;BME280;16133;49.486;12.176;2023-04-01T01:01:05;95645.00;;;6.63;100.00
29045;BME280;16133;49.486;12.176;2023-04-01T01:03:31;95641.72;;;6.61;100.00
29045;BME280;16133;49.486;12.176;2023-04-01T01:11:35;95648.00;;;6.60;100.00
29045;BME280;16133;49.486;12.176;2023-04-01T01:14:32;95644.56;;;6.59;100.00
29045;BME280;16133;49.486;12.176;2023-04-01T01:16:59;95650.03;;;6.58;100.00
29045;BME280;16133;49.486;12.176;2023-04-01T01:19:33;95638.69;;;6.57;100.00
29045;BME280;16133;49.486;12.176;2023-04-01T01:27:17;95639.69;;;6.56;100.00
29045;BME280;16133;49.486;12.176;2023-04-01T01:33:13;95647.41;;;6.58;100.00
29045;BME280;16133;49.486;12.176;2023-04-01T01:38:16;95649.22;;;6.57;100.00
29045;BME280;16133;49.486;12.176;2023-04-01T01:40:46;95649.63;;;6.54;100.00
29045;BME280;16133;49.486;12.176;2023-04-01T01:43:16;95639.06;;;6.54;100.00
29045;BME280;16133;49.486;12.176;2023-04-01T01:45:47;95647.97;;;6.53;100.00
29045;BME280;16133;49.486;12.176;2023-04-01T01:48:14;95649.81;;;6.53;100.00
29045;BME280;16133;49.486;12.176;2023-04-01T01:50:43;95651.03;;;6.50;100.00
29045;BME280;16133;49.486;12.176;2023-04-01T01:53:11;95650.22;;;6.50;100.00
29045;BME280;16133;49.486;12.176;2023-04-01T01:55:40;95655.47;;;6.50;100.00
29045;BME280;16133;49.486;12.176;2023-04-01T02:00:35;95658.94;;;6.50;100.00
29045;BME280;16133;49.486;12.176;2023-04-01T02:03:01;95648.38;;;6.50;100.00
29045;BME280;16133;49.486;12.176;2023-04-01T02:05:27;95654.25;;;6.52;100.00
29045;BME280;16133;49.486;12.176;2023-04-01T02:08:01;95654.66;;;6.56;100.00
29045;BME280;16133;49.486;12.176;2023-04-01T02:10:31;95650.44;;;6.55;100.00
29045;BME280;16133;49.486;12.176;2023-04-01T02:13:03;95659.34;;;6.54;100.00
29045;BME280;16133;49.486;12.176;2023-04-01T02:15:33;95663.59;;;6.55;100.00
29045;BME280;16133;49.486;12.176;2023-04-01T02:18:02;95662.38;;;6.51;100.00
29045;BME280;16133;49.486;12.176;2023-04-01T02:20:29;95642.25;;;6.37;100.00
29045;BME280;16133;49.486;12.176;2023-04-01T02:22:56;95666.81;;;6.44;100.00
29045;BME280;16133;49.486;12.176;2023-04-01T02:25:30;95666.59;;;6.45;100.00
29045;BME280;16133;49.486;12.176;2023-04-01T02:27:59;95662.72;;;6.41;100.00
29045;BME280;16133;49.486;12.176;2023-04-01T02:30:27;95666.00;;;6.43;100.00
29045;BME280;16133;49.486;12.176;2023-04-01T02:32:55;95659.91;;;6.43;100.00
29045;BME280;16133;49.486;12.176;2023-04-01T02:35:22;95660.72;;;6.43;100.00
29045;BME280;16133;49.486;12.176;2023-04-01T02:37:48;95663.34;;;6.43;100.00
29045;BME280;16133;49.486;12.176;2023-04-01T02:40:16;95663.16;;;6.45;100.00
29045;BME280;16133;49.486;12.176;2023-04-01T02:42:41;95657.28;;;6.43;100.00
29045;BME280;16133;49.486;12.176;2023-04-01T02:45:08;95664.19;;;6.44;100.00
29045;BME280;16133;49.486;12.176;2023-04-01T02:47:33;95659.91;;;6.43;100.00
29045;BME280;16133;49.486;12.176;2023-04-01T02:49:59;95664.19;;;6.44;100.00
29045;BME280;16133;49.486;12.176;2023-04-01T02:52:25;95665.78;;;6.45;100.00
29045;BME280;16133;49.486;12.176;2023-04-01T02:54:50;95668.63;;;6.43;100.00
29045;BME280;16133;49.486;12.176;2023-04-01T02:57:16;95674.09;;;6.42;100.00
29045;BME280;16133;49.486;12.176;2023-04-01T02:59:41;95670.84;;;6.40;100.00
29045;BME280;16133;49.486;12.176;2023-04-01T03:02:07;95671.22;;;6.37;100.00
29045;BME280;16133;49.486;12.176;2023-04-01T03:04:32;95667.16;;;6.34;100.00
29045;BME280;16133;49.486;12.176;2023-04-01T03:06:58;95682.53;;;6.24;100.00
29045;BME280;16133;49.486;12.176;2023-04-01T03:09:23;95697.63;;;6.09;100.00
29045;BME280;16133;49.486;12.176;2023-04-01T03:11:48;95701.22;;;6.01;100.00
29045;BME280;16133;49.486;12.176;2023-04-01T03:14:14;95709.13;;;6.01;100.00
29045;BME280;16133;49.486;12.176;2023-04-01T03:16:39;95698.19;;;6.04;100.00
29045;BME280;16133;49.486;12.176;2023-04-01T03:19:04;95694.56;;;6.05;100.00
29045;BME280;16133;49.486;12.176;2023-04-01T03:21:30;95693.19;;;6.09;100.00
29045;BME280;16133;49.486;12.176;2023-04-01T03:23:55;95683.25;;;6.11;100.00
29045;BME280;16133;49.486;12.176;2023-04-01T03:26:21;95678.81;;;6.12;100.00
29045;BME280;16133;49.486;12.176;2023-04-01T03:28:47;95675.78;;;6.15;100.00
29045;BME280;16133;49.486;12.176;2023-04-01T03:31:12;95678.22;;;6.16;100.00
29045;BME280;16133;49.486;12.176;2023-04-01T03:33:38;95672.97;;;6.16;100.00
29045;BME280;16133;49.486;12.176;2023-04-01T03:36:04;95675.59;;;6.16;100.00
29045;BME280;16133;49.486;12.176;2023-04-01T03:38:32;95674.56;;;6.17;100.00
29045;BME280;16133;49.486;12.176;2023-04-01T03:40:58;95676.41;;;6.17;100.00
29045;BME280;16133;49.486;12.176;2023-04-01T03:43:23;95676.00;;;6.20;100.00
29045;BME280;16133;49.486;12.176;2023-04-01T03:45:50;95679.47;;;6.20;100.00
29045;BME280;16133;49.486;12.176;2023-04-01T03:48:16;95676.19;;;6.18;100.00
29045;BME280;16133;49.486;12.176;2023-04-01T03:50:42;95680.66;;;6.18;100.00
29045;BME280;16133;49.486;12.176;2023-04-01T03:53:08;95681.66;;;6.17;100.00
29045;BME280;16133;49.486;12.176;2023-04-01T03:55:38;95676.78;;;6.14;100.00
29045;BME280;16133;49.486;12.176;2023-04-01T03:58:04;95685.69;;;6.13;100.00
29045;BME280;16133;49.486;12.176;2023-04-01T04:00:30;95680.44;;;6.13;100.00
29045;BME280;16133;49.486;12.176;2023-04-01T04:02:56;95690.16;;;6.12;100.00
29045;BME280;16133;49.486;12.176;2023-04-01T04:05:25;95687.53;;;6.12;100.00
29045;BME280;16133;49.486;12.176;2023-04-01T04:07:51;95678.59;;;6.13;100.00
29045;BME280;16133;49.486;12.176;2023-04-01T04:10:17;95677.97;;;6.11;100.00
29045;BME280;16133;49.486;12.176;2023-04-01T04:12:43;95683.66;;;6.15;100.00
29045;BME280;16133;49.486;12.176;2023-04-01T04:15:08;95693.59;;;6.13;100.00
29045;BME280;16133;49.486;12.176;2023-04-01T04:17:34;95682.03;;;6.14;100.00
29045;BME280;16133;49.486;12.176;2023-04-01T04:20:00;95696.03;;;6.14;100.00
29045;BME280;16133;49.486;12.176;2023-04-01T04:22:26;95693.38;;;6.14;100.00
29045;BME280;16133;49.486;12.176;2023-04-01T04:24:51;95693.38;;;6.14;100.00
29045;BME280;16133;49.486;12.176;2023-04-01T04:27:16;95693.38;;;6.14;100.00
29045;BME280;16133;49.486;12.176;2023-04-01T04:29:42;95695.84;;;6.16;100.00
29045;BME280;16133;49.486;12.176;2023-04-01T04:32:07;95689.75;;;6.15;100.00
29045;BME280;16133;49.486;12.176;2023-04-01T04:34:33;95695.03;;;6.15;100.00
29045;BME280;16133;49.486;12.176;2023-04-01T04:36:58;95690.97;;;6.13;100.00
29045;BME280;16133;49.486;12.176;2023-04-01T04:39:24;95696.84;;;6.15;100.00
29045;BME280;16133;49.486;12.176;2023-04-01T04:41:49;95697.03;;;6.13;100.00
29045;BME280;16133;49.486;12.176;2023-04-01T04:44:15;95695.63;;;6.17;100.00
29045;BME280;16133;49.486;12.176;2023-04-01T04:46:40;95703.16;;;6.20;100.00
29045;BME280;16133;49.486;12.176;2023-04-01T04:49:06;95704.16;;;6.19;100.00
29045;BME280;16133;49.486;12.176;2023-04-01T04:51:32;95708.44;;;6.20;100.00
29045;BME280;16133;49.486;12.176;2023-04-01T04:54:02;95711.66;;;6.22;100.00
29045;BME280;16133;49.486;12.176;2023-04-01T04:56:27;95690.75;;;6.14;100.00
29045;BME280;16133;49.486;12.176;2023-04-01T04:58:53;95702.38;;;6.27;100.00
29045;BME280;16133;49.486;12.176;2023-04-01T05:01:19;95709.28;;;6.28;100.00
29045;BME280;16133;49.486;12.176;2023-04-01T05:03:44;95702.63;;;6.32;100.00
29045;BME280;16133;49.486;12.176;2023-04-01T05:06:12;95707.66;;;6.33;100.00
29045;BME280;16133;49.486;12.176;2023-04-01T05:08:38;95690.25;;;6.32;100.00
29045;BME280;16133;49.486;12.176;2023-04-01T05:11:06;95706.91;;;6.39;100.00
29045;BME280;16133;49.486;12.176;2023-04-01T05:13:34;95707.72;;;6.40;100.00
29045;BME280;16133;49.486;12.176;2023-04-01T05:16:00;95714.59;;;6.41;100.00
29045;BME280;16133;49.486;12.176;2023-04-01T05:18:25;95717.47;;;6.46;100.00
29045;BME280;16133;49.486;12.176;2023-04-01T05:20:52;95722.16;;;6.50;100.00
29045;BME280;16133;49.486;12.176;2023-04-01T05:23:18;95723.78;;;6.51;100.00
29045;BME280;16133;49.486;12.176;2023-04-01T05:25:46;95725.03;;;6.55;100.00
29045;BME280;16133;49.486;12.176;2023-04-01T05:28:12;95721.78;;;6.60;100.00
29045;BME280;16133;49.486;12.176;2023-04-01T05:30:40;95720.38;;;6.64;100.00
29045;BME280;16133;49.486;12.176;2023-04-01T05:33:07;95727.72;;;6.68;100.00
29045;BME280;16133;49.486;12.176;2023-04-01T05:35:32;95732.41;;;6.73;100.00
29045;BME280;16133;49.486;12.176;2023-04-01T05:37:58;95731.81;;;6.78;100.00
29045;BME280;16133;49.486;12.176;2023-04-01T05:40:23;95734.47;;;6.84;100.00
29045;BME280;16133;49.486;12.176;2023-04-01T05:42:49;95743.38;;;6.83;100.00
29045;BME280;16133;49.486;12.176;2023-04-01T05:45:14;95740.16;;;6.94;100.00
29045;BME280;16133;49.486;12.176;2023-04-01T05:47:40;95747.09;;;7.02;100.00
29045;BME280;16133;49.486;12.176;2023-04-01T05:50:08;95737.41;;;7.15;100.00
29045;BME280;16133;49.486;12.176;2023-04-01T05:52:33;95742.09;;;7.27;100.00
29045;BME280;16133;49.486;12.176;2023-04-01T05:54:59;95737.66;;;7.40;100.00
29045;BME280;16133;49.486;12.176;2023-04-01T05:57:25;95742.97;;;7.47;100.00
29045;BME280;16133;49.486;12.176;2023-04-01T05:59:51;95751.47;;;7.49;100.00
29045;BME280;16133;49.486;12.176;2023-04-01T06:02:17;95755.97;;;7.55;100.00
29045;BME280;16133;49.486;12.176;2023-04-01T06:04:42;95762.66;;;7.57;100.00
29045;BME280;16133;49.486;12.176;2023-04-01T06:07:12;95765.06;;;7.59;100.00
29045;BME280;16133;49.486;12.176;2023-04-01T06:09:38;95776.66;;;7.58;100.00
29045;BME280;16133;49.486;12.176;2023-04-01T06:15:23;95798.41;;;7.66;100.00
29045;BME280;16133;49.486;12.176;2023-04-01T06:18:09;95798.41;;;7.86;100.00
29045;BME280;16133;49.486;12.176;2023-04-01T06:21:00;95793.75;;;8.01;100.00
29045;BME280;16133;49.486;12.176;2023-04-01T06:24:07;95803.53;;;8.07;100.00
29045;BME280;16133;49.486;12.176;2023-04-01T06:26:37;95821.00;;;8.08;100.00
29045;BME280;16133;49.486;12.176;2023-04-01T06:40:07;95900.84;;;8.17;100.00
29045;BME280;16133;49.486;12.176;2023-04-01T06:45:57;95907.59;;;8.20;100.00
29045;BME280;16133;49.486;12.176;2023-04-01T06:48:59;95903.34;;;8.32;100.00
29045;BME280;16133;49.486;12.176;2023-04-01T06:51:45;95894.59;;;8.44;100.00
29045;BME280;16133;49.486;12.176;2023-04-01T06:54:18;95895.03;;;8.54;100.00
29045;BME280;16133;49.486;12.176;2023-04-01T06:56:49;95899.91;;;8.64;100.00
29045;BME280;16133;49.486;12.176;2023-04-01T06:59:19;95897.25;;;8.71;100.00
29045;BME280;16133;49.486;12.176;2023-04-01T07:01:50;95889.31;;;8.77;100.00
29045;BME280;16133;49.486;12.176;2023-04-01T07:04:24;95916.16;;;8.87;100.00
29045;BME280;16133;49.486;12.176;2023-04-01T07:06:59;95912.47;;;9.01;100.00
29045;BME280;16133;49.486;12.176;2023-04-01T07:09:35;95908.78;;;9.16;100.00
29045;BME280;16133;49.486;12.176;2023-04-01T07:12:09;95925.66;;;9.21;100.00
29045;BME280;16133;49.486;12.176;2023-04-01T07:14:37;95933.78;;;9.26;100.00
29045;BME280;16133;49.486;12.176;2023-04-01T07:17:15;95933.13;;;9.44;100.00
29045;BME280;16133;49.486;12.176;2023-04-01T07:20:05;95931.47;;;9.56;100.00
29045;BME280;16133;49.486;12.176;2023-04-01T07:25:52;95951.19;;;9.67;100.00
29045;BME280;16133;49.486;12.176;2023-04-01T07:28:18;95943.81;;;9.75;100.00
29045;BME280;16133;49.486;12.176;2023-04-01T07:33:49;95933.94;;;9.95;100.00
29045;BME280;16133;49.486;12.176;2023-04-01T07:36:39;95945.19;;;9.91;100.00
29045;BME280;16133;49.486;12.176;2023-04-01T07:42:31;95950.28;;;9.86;100.00
29045;BME280;16133;49.486;12.176;2023-04-01T07:50:31;95957.09;;;10.51;100.00
29045;BME280;16133;49.486;12.176;2023-04-01T07:55:53;95976.47;;;10.83;100.00
29045;BME280;16133;49.486;12.176;2023-04-01T07:58:50;95974.22;;;11.04;100.00
29045;BME280;16133;49.486;12.176;2023-04-01T08:04:14;96004.63;;;11.09;100.00
29045;BME280;16133;49.486;12.176;2023-04-01T08:06:45;96016.31;;;11.01;100.00
29045;BME280;16133;49.486;12.176;2023-04-01T08:09:40;96025.38;;;10.93;100.00
29045;BME280;16133;49.486;12.176;2023-04-01T08:12:20;96028.94;;;10.81;100.00
29045;BME280;16133;49.486;12.176;2023-04-01T08:15:06;96023.78;;;10.86;100.00
29045;BME280;16133;49.486;12.176;2023-04-01T08:18:04;96022.25;;;11.03;100.00
29045;BME280;16133;49.486;12.176;2023-04-01T08:20:47;96024.69;;;11.29;100.00
29045;BME280;16133;49.486;12.176;2023-04-01T08:23:17;96019.59;;;11.46;100.00
29045;BME280;16133;49.486;12.176;2023-04-01T08:28:44;96022.78;;;11.79;100.00
29045;BME280;16133;49.486;12.176;2023-04-01T08:31:19;96022.06;;;11.72;100.00
29045;BME280;16133;49.486;12.176;2023-04-01T08:33:49;96028.25;;;11.84;100.00
29045;BME280;16133;49.486;12.176;2023-04-01T08:36:29;96032.53;;;11.85;100.00
29045;BME280;16133;49.486;12.176;2023-04-01T08:39:16;96034.25;;;11.55;96.31
29045;BME280;16133;49.486;12.176;2023-04-01T08:41:54;96029.53;;;11.57;96.98
29045;BME280;16133;49.486;12.176;2023-04-01T08:44:36;96019.00;;;11.69;93.19
29045;BME280;16133;49.486;12.176;2023-04-01T08:53:06;96018.19;;;12.23;87.68
29045;BME280;16133;49.486;12.176;2023-04-01T08:55:46;96013.84;;;12.58;85.53
29045;BME280;16133;49.486;12.176;2023-04-01T08:58:51;96016.34;;;12.83;84.52
29045;BME280;16133;49.486;12.176;2023-04-01T09:23:29;96029.22;;;13.51;76.95
29045;BME280;16133;49.486;12.176;2023-04-01T09:29:02;96025.50;;;13.86;72.28
29045;BME280;16133;49.486;12.176;2023-04-01T09:40:09;96028.19;;;13.75;71.54
29045;BME280;16133;49.486;12.176;2023-04-01T09:48:07;96029.19;;;13.16;71.85
29045;BME280;16133;49.486;12.176;2023-04-01T09:50:38;96025.25;;;12.88;72.34
29045;BME280;16133;49.486;12.176;2023-04-01T10:01:45;96029.59;;;13.01;75.48
29045;BME280;16133;49.486;12.176;2023-04-01T10:04:30;96024.41;;;13.06;77.87
29045;BME280;16133;49.486;12.176;2023-04-01T10:15:39;96019.16;;;13.64;76.47
29045;BME280;16133;49.486;12.176;2023-04-01T10:21:25;96001.34;;;14.56;73.31
29045;BME280;16133;49.486;12.176;2023-04-01T10:27:33;96013.78;;;14.51;71.48
29045;BME280;16133;49.486;12.176;2023-04-01T10:50:18;96013.41;;;13.03;80.94
29045;BME280;16133;49.486;12.176;2023-04-01T10:55:11;96011.59;;;13.50;81.45
29045;BME280;16133;49.486;12.176;2023-04-01T11:09:03;96010.75;;;12.43;85.13
29045;BME280;16133;49.486;12.176;2023-04-01T11:14:15;96019.44;;;12.20;88.54
29045;BME280;16133;49.486;12.176;2023-04-01T11:23:11;96006.25;;;13.26;83.17
29045;BME280;16133;49.486;12.176;2023-04-01T11:31:23;95992.59;;;12.70;80.51
29045;BME280;16133;49.486;12.176;2023-04-01T11:34:31;96001.75;;;12.44;79.80
29045;BME280;16133;49.486;12.176;2023-04-01T11:37:24;96003.06;;;12.05;82.21
29045;BME280;16133;49.486;12.176;2023-04-01T11:43:06;96004.16;;;11.61;89.91
29045;BME280;16133;49.486;12.176;2023-04-01T11:45:37;96002.50;;;11.42;91.68
29045;BME280;16133;49.486;12.176;2023-04-01T11:53:57;96004.66;;;11.70;99.79
29045;BME280;16133;49.486;12.176;2023-04-01T12:02:23;96013.34;;;12.79;93.06
29045;BME280;16133;49.486;12.176;2023-04-01T12:13:14;96012.38;;;12.74;90.11
29045;BME280;16133;49.486;12.176;2023-04-01T12:21:28;96015.63;;;12.46;90.78
29045;BME280;16133;49.486;12.176;2023-04-01T12:26:55;96017.56;;;11.66;93.25
29045;BME280;16133;49.486;12.176;2023-04-01T12:43:52;96029.69;;;12.94;90.02
29045;BME280;16133;49.486;12.176;2023-04-01T12:46:56;96025.84;;;12.79;89.41
29045;BME280;16133;49.486;12.176;2023-04-01T12:49:34;96027.47;;;12.80;88.31
29045;BME280;16133;49.486;12.176;2023-04-01T12:57:59;96037.56;;;11.93;92.21
29045;BME280;16133;49.486;12.176;2023-04-01T13:00:46;96039.63;;;11.67;97.54
29045;BME280;16133;49.486;12.176;2023-04-01T13:09:20;96039.72;;;11.60;100.00
29045;BME280;16133;49.486;12.176;2023-04-01T13:18:04;96042.03;;;11.50;100.00
29045;BME280;16133;49.486;12.176;2023-04-01T13:20:52;96041.44;;;11.30;100.00
29045;BME280;16133;49.486;12.176;2023-04-01T13:34:59;96056.28;;;10.43;100.00
29045;BME280;16133;49.486;12.176;2023-04-01T13:42:49;96067.69;;;10.44;100.00
29045;BME280;16133;49.486;12.176;2023-04-01T13:45:25;96066.59;;;10.58;100.00
29045;BME280;16133;49.486;12.176;2023-04-01T14:01:35;96066.59;;;10.65;100.00
29045;BME280;16133;49.486;12.176;2023-04-01T14:07:57;96057.91;;;10.82;100.00
29045;BME280;16133;49.486;12.176;2023-04-01T14:13:05;96071.91;;;10.96;100.00
29045;BME280;16133;49.486;12.176;2023-04-01T14:23:53;96066.47;;;10.84;100.00
29045;BME280;16133;49.486;12.176;2023-04-01T14:35:21;96073.34;;;10.54;100.00
29045;BME280;16133;49.486;12.176;2023-04-01T14:38:22;96070.09;;;10.52;100.00
29045;BME280;16133;49.486;12.176;2023-04-01T14:49:50;96068.03;;;10.54;100.00
29045;BME280;16133;49.486;12.176;2023-04-01T14:52:33;96075.63;;;10.50;100.00
29045;BME280;16133;49.486;12.176;2023-04-01T14:55:01;96073.47;;;10.34;100.00
29045;BME280;16133;49.486;12.176;2023-04-01T14:57:30;96071.47;;;10.17;100.00
29045;BME280;16133;49.486;12.176;2023-04-01T15:00:17;96068.22;;;10.01;100.00
29045;BME280;16133;49.486;12.176;2023-04-01T15:03:13;96069.50;;;9.92;100.00
29045;BME280;16133;49.486;12.176;2023-04-01T15:14:34;96067.22;;;10.60;100.00
29045;BME280;16133;49.486;12.176;2023-04-01T15:17:16;96071.63;;;10.73;100.00
29045;BME280;16133;49.486;12.176;2023-04-01T15:36:20;96084.41;;;9.74;100.00
29045;BME280;16133;49.486;12.176;2023-04-01T15:44:02;96094.78;;;9.88;100.00
29045;BME280;16133;49.486;12.176;2023-04-01T15:46:48;96089.63;;;10.06;100.00
29045;BME280;16133;49.486;12.176;2023-04-01T15:52:24;96106.72;;;10.24;100.00
29045;BME280;16133;49.486;12.176;2023-04-01T16:11:53;96118.03;;;9.73;100.00
29045;BME280;16133;49.486;12.176;2023-04-01T16:17:22;96113.97;;;9.44;100.00
29045;BME280;16133;49.486;12.176;2023-04-01T16:22:45;96117.22;;;9.20;100.00
29045;BME280;16133;49.486;12.176;2023-04-01T16:25:31;96115.38;;;9.14;100.00
29045;BME280;16133;49.486;12.176;2023-04-01T16:28:16;96112.09;;;9.05;100.00
29045;BME280;16133;49.486;12.176;2023-04-01T16:36:23;96112.06;;;8.86;100.00
29045;BME280;16133;49.486;12.176;2023-04-01T16:41:49;96114.72;;;8.86;100.00
29045;BME280;16133;49.486;12.176;2023-04-01T16:44:22;96120.22;;;8.84;100.00
29045;BME280;16133;49.486;12.176;2023-04-01T16:46:52;96115.94;;;8.83;100.00
29045;BME280;16133;49.486;12.176;2023-04-01T16:49:40;96115.94;;;8.83;100.00
29045;BME280;16133;49.486;12.176;2023-04-01T16:55:01;96121.63;;;8.74;100.00
29045;BME280;16133;49.486;12.176;2023-04-01T16:57:43;96122.22;;;8.69;100.00
29045;BME280;16133;49.486;12.176;2023-04-01T17:00:24;96126.47;;;8.70;100.00
29045;BME280;16133;49.486;12.176;2023-04-01T17:05:20;96139.09;;;8.68;100.00
29045;BME280;16133;49.486;12.176;2023-04-01T17:08:24;96134.59;;;8.62;100.00
29045;BME280;16133;49.486;12.176;2023-04-01T17:14:26;96136.63;;;8.60;100.00
29045;BME280;16133;49.486;12.176;2023-04-01T17:22:37;96148.97;;;8.46;100.00
29045;BME280;16133;49.486;12.176;2023-04-01T17:27:46;96159.31;;;8.35;100.00
29045;BME280;16133;49.486;12.176;2023-04-01T17:36:30;96163.66;;;8.21;100.00
29045;BME280;16133;49.486;12.176;2023-04-01T17:47:08;96168.63;;;8.03;100.00
29045;BME280;16133;49.486;12.176;2023-04-01T17:49:49;96170.66;;;8.01;100.00
29045;BME280;16133;49.486;12.176;2023-04-01T17:58:14;96180.34;;;7.94;100.00
29045;BME280;16133;49.486;12.176;2023-04-01T18:01:24;96184.19;;;7.91;100.00
29045;BME280;16133;49.486;12.176;2023-04-01T18:26:26;96214.88;;;7.64;100.00
29045;BME280;16133;49.486;12.176;2023-04-01T18:28:57;96213.44;;;7.62;100.00
29045;BME280;16133;49.486;12.176;2023-04-01T18:31:32;96214.44;;;7.61;100.00
29045;BME280;16133;49.486;12.176;2023-04-01T18:36:53;96218.06;;;7.60;100.00
29045;BME280;16133;49.486;12.176;2023-04-01T18:44:56;96223.63;;;7.65;100.00
29045;BME280;16133;49.486;12.176;2023-04-01T18:47:44;96222.31;;;7.54;100.00
29045;BME280;16133;49.486;12.176;2023-04-01T18:53:14;96230.03;;;7.56;100.00
29045;BME280;16133;49.486;12.176;2023-04-01T18:55:55;96227.75;;;7.53;100.00
29045;BME280;16133;49.486;12.176;2023-04-01T19:03:34;96238.31;;;7.53;100.00
29045;BME280;16133;49.486;12.176;2023-04-01T19:06:15;96236.31;;;7.55;100.00
29045;BME280;16133;49.486;12.176;2023-04-01T19:08:42;96245.41;;;7.52;100.00
29045;BME280;16133;49.486;12.176;2023-04-01T19:14:00;96256.78;;;7.53;100.00
29045;BME280;16133;49.486;12.176;2023-04-01T19:19:33;96253.16;;;7.54;100.00
29045;BME280;16133;49.486;12.176;2023-04-01T19:27:38;96259.44;;;7.53;100.00
29045;BME280;16133;49.486;12.176;2023-04-01T19:30:31;96243.28;;;7.41;100.00
29045;BME280;16133;49.486;12.176;2023-04-01T19:38:30;96266.31;;;7.47;100.00
29045;BME280;16133;49.486;12.176;2023-04-01T19:44:12;96268.94;;;7.47;100.00
29045;BME280;16133;49.486;12.176;2023-04-01T19:54:46;96279.66;;;7.46;100.00
29045;BME280;16133;49.486;12.176;2023-04-01T20:05:45;96297.75;;;7.49;100.00
29045;BME280;16133;49.486;12.176;2023-04-01T20:14:14;96295.34;;;7.47;100.00
29045;BME280;16133;49.486;12.176;2023-04-01T20:16:53;96292.22;;;7.44;100.00
29045;BME280;16133;49.486;12.176;2023-04-01T20:21:57;96300.41;;;7.49;100.00
29045;BME280;16133;49.486;12.176;2023-04-01T20:24:28;96309.31;;;7.48;100.00
29045;BME280;16133;49.486;12.176;2023-04-01T20:27:03;96307.72;;;7.47;100.00
29045;BME280;16133;49.486;12.176;2023-04-01T20:29:55;96312.97;;;7.47;100.00
29045;BME280;16133;49.486;12.176;2023-04-01T20:32:49;96309.53;;;7.46;100.00
29045;BME280;16133;49.486;12.176;2023-04-01T20:40:52;96314.16;;;7.44;100.00
29045;BME280;16133;49.486;12.176;2023-04-01T20:51:10;96312.91;;;7.40;100.00
29045;BME280;16133;49.486;12.176;2023-04-01T21:01:54;96314.66;;;7.33;100.00
29045;BME280;16133;49.486;12.176;2023-04-01T21:07:04;96317.09;;;7.35;100.00
29045;BME280;16133;49.486;12.176;2023-04-01T21:36:23;96335.03;;;7.25;100.00
29045;BME280;16133;49.486;12.176;2023-04-01T21:42:10;96334.03;;;7.26;100.00
29045;BME280;16133;49.486;12.176;2023-04-01T21:45:12;96336.69;;;7.26;100.00
29045;BME280;16133;49.486;12.176;2023-04-01T22:04:50;96347.59;;;7.22;100.00
29045;BME280;16133;49.486;12.176;2023-04-01T22:07:20;96351.25;;;7.21;100.00
29045;BME280;16133;49.486;12.176;2023-04-01T22:10:09;96343.69;;;7.18;100.00
29045;BME280;16133;49.486;12.176;2023-04-01T22:12:52;96344.69;;;7.17;100.00
29045;BME280;16133;49.486;12.176;2023-04-01T22:18:11;96352.81;;;7.16;100.00
29045;BME280;16133;49.486;12.176;2023-04-01T22:27:01;96356.44;;;7.15;100.00
29045;BME280;16133;49.486;12.176;2023-04-01T22:32:23;96350.91;;;7.10;100.00
29045;BME280;16133;49.486;12.176;2023-04-01T22:35:32;96351.72;;;7.10;100.00
29045;BME280;16133;49.486;12.176;2023-04-01T22:49:05;96351.91;;;7.09;100.00
29045;BME280;16133;49.486;12.176;2023-04-01T22:51:54;96361.66;;;7.08;100.00
29045;BME280;16133;49.486;12.176;2023-04-01T22:57:13;96349.44;;;7.07;100.00
29045;BME280;16133;49.486;12.176;2023-04-01T23:01:03;96357.38;;;7.07;100.00
29045;BME280;16133;49.486;12.176;2023-04-01T23:03:26;96360.00;;;7.07;100.00
29045;BME280;16133;49.486;12.176;2023-04-01T23:05:56;96356.53;;;7.07;100.00
29045;BME280;16133;49.486;12.176;2023-04-01T23:10:59;96356.38;;;7.08;100.00